Time;durP1;ratioP1;P1;durP2;ratioP2;P2;SDS_P1;SDS_P2;PMS_P1;PMS_P2;Temp;Humidity;BMP_temperature;BMP_pressure;BME280_temperature;BME280_humidity;BME280_pressure;Samples;Min_cycle;Max_cycle;Signal;HPM_P1;HPM_P2
2022/05/31 00:01:37;;;;;;;;;;;;;;;20.49;68.65;99561.53;5043781;28;20318;-83
2022/05/31 00:04:02;;;;;;;;;;;;;;;20.51;68.53;99562.34;5051993;28;19927;-83
2022/05/31 00:06:28;;;;;;;;;;;;;;;20.42;68.65;99565.53;5049465;28;19924;-83
2022/05/31 00:08:53;;;;;;;;;;;;;;;20.48;68.39;99562.50;5045931;28;19928;-83
2022/05/31 00:11:19;;;;;;;;;;;;;;;20.64;68.02;99562.47;5026792;28;19940;-84
2022/05/31 00:13:44;;;;;;;;;;;;;;;20.55;68.05;99566.53;5048992;28;19922;-84
2022/05/31 00:16:10;;;;;;;;;;;;;;;20.66;67.75;99562.41;5033038;28;19928;-82
2022/05/31 00:18:35;;;;;;;;;;;;;;;20.69;67.82;99567.59;5029600;28;19928;-83
2022/05/31 00:21:01;;;;;;;;;;;;;;;20.60;67.97;99571.63;5037654;28;19948;-82
2022/05/31 00:23:26;;;;;;;;;;;;;;;20.48;68.42;99572.34;5049428;28;19917;-83
2022/05/31 00:25:52;;;;;;;;;;;;;;;20.53;68.25;99581.00;5037221;28;20383;-84
2022/05/31 00:28:17;;;;;;;;;;;;;;;20.68;67.71;99576.56;5029132;28;19917;-83
2022/05/31 00:30:42;;;;;;;;;;;;;;;20.61;67.86;99573.38;5011554;28;19928;-83
2022/05/31 00:33:10;;;;;;;;;;;;;;;20.77;67.62;99581.38;5028540;28;19927;-82
2022/05/31 00:35:39;;;;;;;;;;;;;;;20.82;67.29;99586.47;5029684;28;19920;-83
2022/05/31 00:38:06;;;;;;;;;;;;;;;20.65;67.78;99584.78;5028395;28;19921;-83
2022/05/31 00:40:32;;;;;;;;;;;;;;;20.80;67.11;99588.41;5029024;28;20390;-83
2022/05/31 00:42:58;;;;;;;;;;;;;;;20.77;67.34;99583.22;5027387;28;19924;-84
2022/05/31 00:45:26;;;;;;;;;;;;;;;20.78;67.33;99590.31;5028034;28;19916;-82
2022/05/31 00:47:52;;;;;;;;;;;;;;;20.72;67.74;99591.53;5029041;28;20051;-83
2022/05/31 00:50:41;;;;;;;;;;;;;;;20.65;67.74;99587.47;5028855;28;20028;-83
2022/05/31 00:53:16;;;;;;;;;;;;;;;20.68;67.56;99590.84;5020943;28;19971;-83
2022/05/31 00:55:44;;;;;;;;;;;;;;;20.57;67.77;99591.44;5028982;28;19917;-83
2022/05/31 00:58:13;;;;;;;;;;;;;;;20.56;67.57;99600.44;5028748;28;20430;-83
2022/05/31 01:00:40;;;;;;;;;;;;;;;20.44;67.58;99601.13;5028340;28;19917;-81
2022/05/31 01:03:06;;;;;;;;;;;;;;;20.33;67.34;99600.91;5028342;28;19921;-82
2022/05/31 01:05:31;;;;;;;;;;;;;;;20.18;67.61;99608.81;5027674;28;19920;-82
2022/05/31 01:07:56;;;;;;;;;;;;;;;20.06;68.14;99603.31;5027818;28;19921;-82
2022/05/31 01:10:22;;;;;;;;;;;;;;;20.02;67.92;99605.28;5028274;28;20020;-82
2022/05/31 01:12:48;;;;;;;;;;;;;;;20.03;67.71;99612.34;5010601;28;19921;-82
2022/05/31 01:15:15;;;;;;;;;;;;;;;19.80;68.25;99602.91;5028784;28;19916;-82
2022/05/31 01:17:42;;;;;;;;;;;;;;;19.88;67.85;99600.72;5028397;28;19923;-83
2022/05/31 01:20:08;;;;;;;;;;;;;;;19.88;67.38;99595.34;5027881;28;19932;-83
2022/05/31 01:22:38;;;;;;;;;;;;;;;19.94;66.73;99610.19;5028108;28;19944;-82
2022/05/31 01:25:14;;;;;;;;;;;;;;;19.70;66.29;99607.03;5010640;28;20483;-82
2022/05/31 01:27:58;;;;;;;;;;;;;;;19.47;66.92;99606.44;5032065;28;19936;-82
2022/05/31 01:30:23;;;;;;;;;;;;;;;19.30;67.05;99608.19;5010272;28;19921;-82
2022/05/31 01:32:55;;;;;;;;;;;;;;;19.31;67.10;99604.59;5028638;28;19935;-82
2022/05/31 01:35:39;;;;;;;;;;;;;;;19.37;66.12;99608.75;5028160;28;20454;-82
2022/05/31 01:38:10;;;;;;;;;;;;;;;19.17;66.92;99604.44;5037630;28;19935;-82
2022/05/31 01:40:55;;;;;;;;;;;;;;;19.36;66.37;99604.34;5047298;28;19947;-82
2022/05/31 01:43:22;;;;;;;;;;;;;;;19.19;66.86;99607.91;5015858;28;20015;-82
2022/05/31 01:45:55;;;;;;;;;;;;;;;19.16;66.55;99607.19;5028015;28;19983;-82
2022/05/31 01:48:22;;;;;;;;;;;;;;;19.24;66.82;99610.31;5043977;28;19929;-82
2022/05/31 01:50:47;;;;;;;;;;;;;;;19.32;66.20;99608.09;5016361;28;19943;-82
2022/05/31 01:53:14;;;;;;;;;;;;;;;19.28;66.21;99609.22;5016133;28;19920;-82
2022/05/31 01:55:43;;;;;;;;;;;;;;;19.19;65.60;99613.25;5028979;28;19921;-82
2022/05/31 01:58:13;;;;;;;;;;;;;;;19.25;66.03;99614.75;5046996;28;19917;-82
2022/05/31 02:00:39;;;;;;;;;;;;;;;19.36;65.95;99612.34;5044099;28;19990;-83
2022/05/31 02:03:05;;;;;;;;;;;;;;;19.42;65.87;99627.22;5047641;28;20402;-83
2022/05/31 02:05:30;;;;;;;;;;;;;;;19.45;65.76;99627.91;5047412;28;20015;-82
2022/05/31 02:07:57;;;;;;;;;;;;;;;19.34;65.42;99632.97;5047114;28;20494;-83
2022/05/31 02:10:23;;;;;;;;;;;;;;;19.35;65.92;99637.38;5047860;28;19924;-83
2022/05/31 02:12:49;;;;;;;;;;;;;;;19.30;66.18;99640.28;5047454;28;19931;-83
2022/05/31 02:15:15;;;;;;;;;;;;;;;19.44;65.88;99644.06;5044254;28;19920;-83
2022/05/31 02:17:40;;;;;;;;;;;;;;;19.36;66.10;99636.44;5040525;28;19936;-81
2022/05/31 02:20:06;;;;;;;;;;;;;;;19.44;65.57;99639.56;5046905;28;20365;-82
2022/05/31 02:22:31;;;;;;;;;;;;;;;19.45;65.50;99641.28;5028276;28;20345;-83
2022/05/31 02:24:56;;;;;;;;;;;;;;;19.38;65.66;99639.88;5047286;28;19920;-82
2022/05/31 02:27:22;;;;;;;;;;;;;;;19.33;65.86;99642.78;5046169;28;19921;-82
2022/05/31 02:29:48;;;;;;;;;;;;;;;19.38;65.36;99650.56;5045389;28;19920;-82
2022/05/31 02:32:14;;;;;;;;;;;;;;;19.34;65.61;99662.41;5046652;28;20342;-82
2022/05/31 02:34:42;;;;;;;;;;;;;;;19.43;65.33;99659.25;5016194;28;19966;-82
2022/05/31 02:37:08;;;;;;;;;;;;;;;19.13;66.67;99667.88;5027459;28;19916;-83
2022/05/31 02:39:34;;;;;;;;;;;;;;;18.80;68.35;99665.09;5037753;28;19920;-83
2022/05/31 02:42:00;;;;;;;;;;;;;;;18.93;67.85;99670.72;5027195;28;20031;-82
2022/05/31 02:44:26;;;;;;;;;;;;;;;19.06;67.78;99665.59;5027361;28;19921;-82
2022/05/31 02:46:51;;;;;;;;;;;;;;;19.17;67.82;99670.41;5031369;28;19950;-82
2022/05/31 02:49:18;;;;;;;;;;;;;;;19.20;67.59;99656.88;5044853;28;19966;-83
2022/05/31 02:51:44;;;;;;;;;;;;;;;19.28;67.07;99660.03;5045656;28;19955;-82
2022/05/31 02:54:11;;;;;;;;;;;;;;;19.17;67.11;99662.38;5025328;28;20313;-82
2022/05/31 02:56:36;;;;;;;;;;;;;;;19.15;67.00;99667.81;5045496;28;19947;-82
2022/05/31 02:59:01;;;;;;;;;;;;;;;19.11;66.97;99677.81;5039335;28;19942;-87
2022/05/31 03:01:27;;;;;;;;;;;;;;;19.13;66.60;99683.06;5036896;28;20732;-85
2022/05/31 03:03:52;;;;;;;;;;;;;;;19.18;66.72;99682.84;5040100;28;20167;-85
2022/05/31 03:06:18;;;;;;;;;;;;;;;19.04;67.53;99686.22;5046847;28;20526;-86
2022/05/31 03:08:43;;;;;;;;;;;;;;;18.96;68.23;99689.25;5037004;28;20367;-86
2022/05/31 03:11:14;;;;;;;;;;;;;;;19.18;67.48;99685.50;5045997;28;19943;-87
2022/05/31 03:13:39;;;;;;;;;;;;;;;19.21;67.23;99680.88;5030963;28;20284;-88
2022/05/31 03:16:05;;;;;;;;;;;;;;;19.11;67.61;99683.16;5027032;28;19928;-88
2022/05/31 03:18:37;;;;;;;;;;;;;;;19.13;67.38;99685.75;5027484;28;19937;-89
2022/05/31 03:21:07;;;;;;;;;;;;;;;19.09;67.40;99690.38;5009780;28;20350;-90
2022/05/31 03:23:35;;;;;;;;;;;;;;;19.12;67.10;99686.69;5018279;28;20011;-87
2022/05/31 03:26:04;;;;;;;;;;;;;;;18.95;67.71;99691.09;5046790;28;20323;-89
2022/05/31 03:28:32;;;;;;;;;;;;;;;18.99;67.83;99691.78;5036743;28;19921;-91
2022/05/31 03:30:57;;;;;;;;;;;;;;;18.78;68.37;99705.25;5014290;28;20078;-91
2022/05/31 03:33:22;;;;;;;;;;;;;;;18.68;69.39;99697.75;5024147;28;20434;-88
2022/05/31 03:35:48;;;;;;;;;;;;;;;18.65;69.37;99709.44;5050907;28;19921;-91
2022/05/31 03:38:13;;;;;;;;;;;;;;;18.64;69.69;99704.16;5031579;28;19927;-87
2022/05/31 03:40:56;;;;;;;;;;;;;;;18.76;69.54;99712.44;5035673;28;20330;-86
2022/05/31 03:43:23;;;;;;;;;;;;;;;18.72;70.01;99712.66;5050150;28;19970;-85
2022/05/31 03:45:49;;;;;;;;;;;;;;;18.79;69.99;99714.97;5050144;28;19924;-84
2022/05/31 03:48:14;;;;;;;;;;;;;;;18.89;70.53;99730.59;5049651;28;19917;-85
2022/05/31 03:50:40;;;;;;;;;;;;;;;19.11;69.72;99723.25;5048270;28;20016;-87
2022/05/31 03:53:08;;;;;;;;;;;;;;;19.33;68.69;99724.84;5018562;28;19944;-90
2022/05/31 03:55:40;;;;;;;;;;;;;;;19.31;68.41;99721.38;5050044;28;19958;-88
2022/05/31 03:58:06;;;;;;;;;;;;;;;19.28;68.60;99719.72;5049844;28;19975;-88
2022/05/31 04:00:32;;;;;;;;;;;;;;;19.56;67.45;99720.13;5040915;28;20391;-87
2022/05/31 04:02:57;;;;;;;;;;;;;;;19.68;66.94;99723.03;5026670;28;19917;-86
2022/05/31 04:05:22;;;;;;;;;;;;;;;19.76;66.45;99724.44;5050628;28;19919;-84
2022/05/31 04:07:51;;;;;;;;;;;;;;;19.94;66.05;99734.22;5049681;28;19920;-82
2022/05/31 04:10:16;;;;;;;;;;;;;;;20.15;65.28;99726.81;5043784;28;19925;-83
2022/05/31 04:12:42;;;;;;;;;;;;;;;20.34;65.09;99732.06;5029682;28;20398;-84
2022/05/31 04:15:07;;;;;;;;;;;;;;;20.43;64.97;99724.44;5029273;28;19990;-84
2022/05/31 04:17:32;;;;;;;;;;;;;;;20.57;64.14;99727.22;5011747;28;19968;-84
2022/05/31 04:19:58;;;;;;;;;;;;;;;20.63;65.07;99721.50;5032517;28;20624;-83
2022/05/31 04:22:23;;;;;;;;;;;;;;;20.84;65.09;99722.16;5049501;28;20344;-83
2022/05/31 04:24:53;;;;;;;;;;;;;;;20.90;65.06;99731.69;5049778;28;19913;-82
2022/05/31 04:27:18;;;;;;;;;;;;;;;20.89;64.90;99736.16;5049532;28;19973;-83
2022/05/31 04:29:44;;;;;;;;;;;;;;;21.40;64.17;99729.66;5049213;28;20387;-81
2022/05/31 04:32:10;;;;;;;;;;;;;;;21.44;63.56;99731.19;5049228;28;19931;-83
2022/05/31 04:34:35;;;;;;;;;;;;;;;21.58;62.83;99738.47;5048608;28;19974;-86
2022/05/31 04:37:01;;;;;;;;;;;;;;;21.82;61.56;99741.50;5025146;28;20402;-83
2022/05/31 04:39:26;;;;;;;;;;;;;;;21.93;60.62;99743.50;5028893;28;19913;-85
2022/05/31 04:41:52;;;;;;;;;;;;;;;21.99;59.25;99740.44;5028312;28;19917;-83
2022/05/31 04:44:18;;;;;;;;;;;;;;;22.13;59.39;99743.13;5029799;28;19923;-83
2022/05/31 04:46:43;;;;;;;;;;;;;;;22.58;58.88;99753.78;5033508;28;19920;-83
2022/05/31 04:49:09;;;;;;;;;;;;;;;22.87;58.26;99745.69;5048003;28;20424;-83
2022/05/31 04:51:34;;;;;;;;;;;;;;;23.02;57.67;99744.69;5029093;28;19978;-84
2022/05/31 04:54:01;;;;;;;;;;;;;;;23.21;56.64;99755.09;5033417;28;19921;-87
2022/05/31 04:56:27;;;;;;;;;;;;;;;23.37;56.21;99754.06;5044040;28;19920;-84
2022/05/31 04:58:53;;;;;;;;;;;;;;;23.42;55.85;99749.25;5029035;28;20003;-84
2022/05/31 05:01:19;;;;;;;;;;;;;;;23.20;56.19;99750.72;5028196;28;20016;-84
2022/05/31 05:03:44;;;;;;;;;;;;;;;23.51;55.65;99750.44;5028444;28;20381;-83
2022/05/31 05:06:11;;;;;;;;;;;;;;;23.77;54.51;99752.25;5029035;28;20374;-83
2022/05/31 05:08:37;;;;;;;;;;;;;;;24.06;54.10;99746.66;5028650;28;19913;-85
2022/05/31 05:11:03;;;;;;;;;;;;;;;24.08;52.93;99743.88;5034359;28;19921;-84
2022/05/31 05:13:29;;;;;;;;;;;;;;;24.40;52.74;99749.66;5048611;28;19913;-84
2022/05/31 05:15:55;;;;;;;;;;;;;;;24.21;52.76;99755.50;5046966;28;20528;-84
2022/05/31 05:18:21;;;;;;;;;;;;;;;24.05;53.44;99744.97;5048302;28;19917;-85
2022/05/31 05:20:46;;;;;;;;;;;;;;;24.38;53.73;99745.38;5047279;28;19944;-85
2022/05/31 05:23:11;;;;;;;;;;;;;;;24.44;54.28;99745.78;5048155;28;19913;-85
2022/05/31 05:25:37;;;;;;;;;;;;;;;24.07;55.32;99751.09;5047628;28;20443;-86
2022/05/31 05:30:38;;;;;;;;;;;;;;;23.94;55.19;99747.53;5047883;28;20405;-86
2022/05/31 05:30:48;;;;;;;;;;;;;;;24.77;54.58;99748.88;5048041;28;19916;-84
2022/05/31 05:33:13;;;;;;;;;;;;;;;24.57;52.24;99745.78;5048085;28;20292;-85
2022/05/31 05:35:39;;;;;;;;;;;;;;;25.05;52.87;99747.66;5047987;28;20395;-85
2022/05/31 05:38:06;;;;;;;;;;;;;;;24.94;52.19;99750.31;5047906;28;19916;-85
2022/05/31 05:40:32;;;;;;;;;;;;;;;25.73;50.18;99745.28;5048243;28;19917;-85
2022/05/31 05:42:57;;;;;;;;;;;;;;;25.20;50.56;99753.78;5046775;28;20473;-85
2022/05/31 05:45:23;;;;;;;;;;;;;;;25.63;50.56;99757.78;5047989;28;19916;-85
2022/05/31 05:47:49;;;;;;;;;;;;;;;26.00;50.39;99750.41;5047093;28;20010;-85
2022/05/31 05:50:14;;;;;;;;;;;;;;;26.37;48.17;99760.13;5047496;28;19966;-86
2022/05/31 05:52:40;;;;;;;;;;;;;;;26.07;48.59;99748.94;5046675;28;19916;-85
2022/05/31 05:55:06;;;;;;;;;;;;;;;26.66;48.02;99756.94;5047386;28;20371;-84
2022/05/31 05:57:31;;;;;;;;;;;;;;;27.12;48.10;99758.56;5029732;28;19916;-84
2022/05/31 05:59:56;;;;;;;;;;;;;;;26.56;47.16;99749.56;5047577;28;20458;-85
2022/05/31 06:02:29;;;;;;;;;;;;;;;27.09;46.68;99748.84;5047577;28;19923;-84
2022/05/31 06:05:18;;;;;;;;;;;;;;;27.12;47.77;99745.03;5047315;28;19909;-85
2022/05/31 06:07:50;;;;;;;;;;;;;;;27.57;45.49;99746.75;5018767;28;20311;-84
2022/05/31 06:10:21;;;;;;;;;;;;;;;27.78;45.21;99747.59;5028994;28;19970;-85
2022/05/31 06:12:51;;;;;;;;;;;;;;;27.12;46.07;99745.88;5047581;28;19920;-85
2022/05/31 06:15:20;;;;;;;;;;;;;;;26.66;46.84;99743.44;5046865;28;20018;-85
2022/05/31 06:17:46;;;;;;;;;;;;;;;27.52;45.67;99730.88;5047057;28;20374;-85
2022/05/31 06:20:12;;;;;;;;;;;;;;;27.76;46.33;99736.06;5047565;28;19928;-86
2022/05/31 06:22:39;;;;;;;;;;;;;;;27.87;46.22;99737.81;5029201;28;19916;-85
2022/05/31 06:25:04;;;;;;;;;;;;;;;28.42;43.65;99736.69;5047632;28;19917;-85
2022/05/31 06:27:30;;;;;;;;;;;;;;;28.43;43.28;99733.84;5047190;28;20446;-85
2022/05/31 06:29:55;;;;;;;;;;;;;;;28.77;42.97;99740.84;5047223;28;20344;-85
2022/05/31 06:32:20;;;;;;;;;;;;;;;28.75;41.72;99743.69;5047454;28;19913;-85
2022/05/31 06:34:46;;;;;;;;;;;;;;;28.30;42.00;99738.63;5047463;28;19909;-85
2022/05/31 06:37:14;;;;;;;;;;;;;;;28.82;43.05;99730.41;5029367;28;19924;-85
2022/05/31 06:39:40;;;;;;;;;;;;;;;28.22;43.15;99729.34;5047425;28;19917;-85
2022/05/31 06:42:06;;;;;;;;;;;;;;;27.92;43.58;99724.72;5047301;28;19919;-84
2022/05/31 06:44:32;;;;;;;;;;;;;;;28.14;44.17;99736.44;5047317;28;19916;-85
2022/05/31 06:46:58;;;;;;;;;;;;;;;28.51;43.88;99734.00;5047155;28;19916;-85
2022/05/31 06:49:23;;;;;;;;;;;;;;;28.10;42.80;99733.16;5046966;28;19912;-83
2022/05/31 06:57:16;;;;;;;;;;;;;;;29.31;41.82;99714.22;5047142;28;20039;-84
2022/05/31 06:59:41;;;;;;;;;;;;;;;28.98;43.74;99719.88;5046974;28;20011;-84
2022/05/31 07:02:07;;;;;;;;;;;;;;;29.42;41.64;99716.78;5046402;28;19990;-85
2022/05/31 07:04:36;;;;;;;;;;;;;;;28.90;41.63;99720.59;5048638;28;20332;-83
2022/05/31 07:07:02;;;;;;;;;;;;;;;28.67;43.07;99719.09;5050553;28;19923;-85
2022/05/31 07:09:27;;;;;;;;;;;;;;;28.06;43.37;99717.28;5050170;28;19921;-84
2022/05/31 07:11:56;;;;;;;;;;;;;;;28.43;43.66;99723.00;5050781;28;19919;-85
2022/05/31 07:14:22;;;;;;;;;;;;;;;28.91;42.14;99713.28;5050196;28;19916;-85
2022/05/31 07:16:48;;;;;;;;;;;;;;;29.20;43.45;99716.06;5051019;28;19936;-84
2022/05/31 07:19:13;;;;;;;;;;;;;;;29.81;40.48;99714.91;5049315;28;19916;-86
2022/05/31 07:21:38;;;;;;;;;;;;;;;30.66;38.74;99722.16;5050411;28;19913;-85
2022/05/31 07:24:04;;;;;;;;;;;;;;;30.43;38.38;99717.16;5049423;28;19916;-86
2022/05/31 07:26:29;;;;;;;;;;;;;;;29.69;39.48;99709.72;5050380;28;20423;-86
2022/05/31 07:28:56;;;;;;;;;;;;;;;29.57;40.05;99709.06;5050101;28;19925;-86
2022/05/31 07:31:21;;;;;;;;;;;;;;;29.58;42.07;99705.31;5050282;28;19986;-87
2022/05/31 07:33:48;;;;;;;;;;;;;;;29.54;39.92;99704.75;5050103;28;19966;-85
2022/05/31 07:36:13;;;;;;;;;;;;;;;30.33;39.82;99700.81;5049968;28;19920;-87
2022/05/31 07:38:38;;;;;;;;;;;;;;;30.30;41.16;99701.13;5031804;28;19921;-87
2022/05/31 07:41:05;;;;;;;;;;;;;;;29.74;41.29;99711.00;5050333;28;19924;-87
2022/05/31 07:43:31;;;;;;;;;;;;;;;29.64;41.45;99702.91;5032072;28;19916;-87
2022/05/31 07:46:05;;;;;;;;;;;;;;;30.49;38.84;99700.22;5050344;28;19916;-87
2022/05/31 07:48:31;;;;;;;;;;;;;;;31.28;38.16;99703.28;5031729;28;20295;-87
2022/05/31 07:50:56;;;;;;;;;;;;;;;31.24;39.50;99707.34;5049898;28;20027;-86
2022/05/31 07:53:21;;;;;;;;;;;;;;;31.75;38.08;99699.41;5051007;28;19913;-87
2022/05/31 07:55:54;;;;;;;;;;;;;;;32.23;35.13;99695.28;5050978;28;20367;-88
2022/05/31 07:58:31;;;;;;;;;;;;;;;32.15;37.61;99694.38;5050316;28;19912;-86
2022/05/31 08:00:57;;;;;;;;;;;;;;;32.19;35.84;99693.06;5049977;28;19920;-87
2022/05/31 08:03:25;;;;;;;;;;;;;;;32.00;36.97;99694.97;5049801;28;20015;-87
2022/05/31 08:05:50;;;;;;;;;;;;;;;32.47;37.36;99682.75;5050024;28;19917;-87
2022/05/31 08:08:15;;;;;;;;;;;;;;;32.05;38.07;99692.59;5032286;28;19970;-87
2022/05/31 08:10:41;;;;;;;;;;;;;;;32.37;34.57;99693.81;5031046;28;20008;-84
2022/05/31 08:13:06;;;;;;;;;;;;;;;32.45;35.63;99690.28;5049582;28;20004;-84
2022/05/31 08:15:32;;;;;;;;;;;;;;;32.42;36.54;99677.78;5057122;28;20002;-86
2022/05/31 08:17:57;;;;;;;;;;;;;;;32.12;40.44;99680.06;5063422;28;19927;-86
2022/05/31 08:20:22;;;;;;;;;;;;;;;31.98;38.37;99680.66;5060565;28;20333;-85
2022/05/31 08:22:48;;;;;;;;;;;;;;;32.23;36.63;99676.19;5052550;28;20350;-85
2022/05/31 08:25:13;;;;;;;;;;;;;;;32.54;39.95;99672.91;5051268;28;19963;-85
2022/05/31 08:27:39;;;;;;;;;;;;;;;32.06;37.52;99672.50;5050152;28;19920;-84
2022/05/31 08:30:05;;;;;;;;;;;;;;;32.13;38.69;99670.88;5050626;28;19921;-85
2022/05/31 08:32:31;;;;;;;;;;;;;;;32.55;35.12;99668.28;5032306;28;19920;-84
2022/05/31 08:34:56;;;;;;;;;;;;;;;32.55;35.87;99658.25;5048968;28;20019;-86
2022/05/31 08:37:22;;;;;;;;;;;;;;;33.18;34.23;99655.97;5049792;28;20501;-85
2022/05/31 08:39:47;;;;;;;;;;;;;;;33.60;34.22;99654.97;5030628;28;20414;-84
2022/05/31 08:42:21;;;;;;;;;;;;;;;33.76;33.50;99645.91;5049693;28;20011;-85
2022/05/31 08:44:55;;;;;;;;;;;;;;;33.84;32.94;99651.34;5049428;28;19937;-86
2022/05/31 08:47:40;;;;;;;;;;;;;;;34.10;32.56;99652.13;5048455;28;19970;-85
2022/05/31 08:53:08;;;;;;;;;;;;;;;33.42;36.06;99649.69;5048563;28;19923;-84
2022/05/31 08:58:35;;;;;;;;;;;;;;;33.77;33.97;99652.19;5049400;28;19924;-86
2022/05/31 09:01:02;;;;;;;;;;;;;;;33.38;35.61;99653.78;5048542;28;19928;-84
2022/05/31 09:03:30;;;;;;;;;;;;;;;32.49;37.37;99646.09;5030928;28;19967;-84
2022/05/31 09:06:00;;;;;;;;;;;;;;;33.00;38.95;99648.78;5048525;28;19921;-85
2022/05/31 09:08:25;;;;;;;;;;;;;;;32.86;36.99;99643.13;5049020;28;19946;-86
2022/05/31 09:10:51;;;;;;;;;;;;;;;33.41;34.74;99645.22;5048249;28;19921;-86
2022/05/31 09:13:25;;;;;;;;;;;;;;;33.51;34.75;99645.06;5048485;28;19975;-86
2022/05/31 09:15:54;;;;;;;;;;;;;;;33.40;33.44;99648.13;5031035;28;20369;-87
2022/05/31 09:18:38;;;;;;;;;;;;;;;33.21;34.54;99642.00;5030491;28;19923;-85
2022/05/31 09:21:04;;;;;;;;;;;;;;;33.36;33.73;99643.00;5031113;28;19916;-85
2022/05/31 09:23:31;;;;;;;;;;;;;;;33.09;33.87;99641.47;5048289;28;20007;-87
2022/05/31 09:26:01;;;;;;;;;;;;;;;33.47;32.38;99636.34;5047829;28;19913;-86
2022/05/31 09:28:26;;;;;;;;;;;;;;;33.52;32.44;99630.34;5048431;28;19928;-88
2022/05/31 09:30:52;;;;;;;;;;;;;;;33.12;33.51;99632.94;5048655;28;19913;-87
2022/05/31 09:33:28;;;;;;;;;;;;;;;33.16;33.58;99627.97;5048301;28;20429;-87
2022/05/31 09:36:06;;;;;;;;;;;;;;;33.28;33.41;99631.25;5048444;28;19920;-87
2022/05/31 09:38:31;;;;;;;;;;;;;;;32.90;32.93;99628.97;5048410;28;19916;-86
2022/05/31 09:41:17;;;;;;;;;;;;;;;33.56;33.14;99634.44;5048773;28;20437;-88
2022/05/31 09:43:45;;;;;;;;;;;;;;;33.63;33.29;99627.28;5037179;28;19920;-85
2022/05/31 09:46:14;;;;;;;;;;;;;;;33.89;32.82;99629.78;5029902;28;20284;-87
2022/05/31 09:48:50;;;;;;;;;;;;;;;33.34;37.86;99619.63;5047718;28;20390;-90
2022/05/31 09:51:16;;;;;;;;;;;;;;;33.45;32.12;99618.41;5029961;28;19917;-86
2022/05/31 09:59:12;;;;;;;;;;;;;;;33.80;31.00;99614.44;5048031;28;19923;-86
2022/05/31 10:01:43;;;;;;;;;;;;;;;33.85;33.13;99614.75;5047813;28;19923;-86
2022/05/31 10:04:10;;;;;;;;;;;;;;;33.94;32.04;99617.44;5029865;28;20027;-88
2022/05/31 10:06:52;;;;;;;;;;;;;;;34.31;31.70;99600.41;5029818;28;20437;-88
2022/05/31 10:09:18;;;;;;;;;;;;;;;33.95;31.35;99600.03;5028955;28;19920;-87
2022/05/31 10:11:45;;;;;;;;;;;;;;;33.80;31.69;99598.03;5051818;28;19913;-89
2022/05/31 10:14:27;;;;;;;;;;;;;;;34.00;33.03;99595.72;5030707;28;19916;-87
2022/05/31 10:16:54;;;;;;;;;;;;;;;33.77;33.12;99594.78;5037130;28;20033;-86
2022/05/31 10:19:22;;;;;;;;;;;;;;;33.76;33.48;99590.34;5029520;28;20364;-85
2022/05/31 10:21:48;;;;;;;;;;;;;;;33.46;33.52;99590.91;5047509;28;20043;-84
2022/05/31 10:24:17;;;;;;;;;;;;;;;33.48;33.65;99569.72;5047498;28;20393;-86
2022/05/31 10:26:45;;;;;;;;;;;;;;;33.52;32.87;99587.47;5045926;28;20118;-86
2022/05/31 10:29:12;;;;;;;;;;;;;;;33.50;31.47;99584.03;5029159;28;19913;-86
2022/05/31 10:31:41;;;;;;;;;;;;;;;33.79;29.81;99590.00;5047028;28;19919;-86
2022/05/31 10:34:24;;;;;;;;;;;;;;;33.87;32.07;99592.69;5046954;28;19963;-86
2022/05/31 10:36:52;;;;;;;;;;;;;;;33.44;31.98;99592.09;5049817;28;20017;-86
2022/05/31 10:39:20;;;;;;;;;;;;;;;33.28;32.25;99588.38;5050010;28;19920;-89
2022/05/31 10:41:45;;;;;;;;;;;;;;;33.49;32.28;99590.56;5053798;28;20023;-89
2022/05/31 10:44:14;;;;;;;;;;;;;;;34.05;29.92;99595.19;5052998;28;19944;-87
2022/05/31 10:46:42;;;;;;;;;;;;;;;34.07;30.70;99593.97;5051016;28;19920;-87
2022/05/31 10:49:14;;;;;;;;;;;;;;;33.95;31.18;99589.91;5051425;28;19967;-87
2022/05/31 10:51:54;;;;;;;;;;;;;;;33.41;30.57;99589.72;5050253;28;19951;-87
2022/05/31 10:54:26;;;;;;;;;;;;;;;33.05;32.80;99584.59;5047955;28;19924;-88
2022/05/31 10:56:55;;;;;;;;;;;;;;;33.19;32.46;99579.31;5048064;28;19916;-87
2022/05/31 10:59:25;;;;;;;;;;;;;;;33.02;31.70;99575.72;5047814;28;19994;-88
2022/05/31 11:01:56;;;;;;;;;;;;;;;32.52;31.93;99582.16;5047940;28;20594;-84
2022/05/31 11:04:25;;;;;;;;;;;;;;;32.65;32.70;99570.75;5047890;28;19916;-86
2022/05/31 11:07:02;;;;;;;;;;;;;;;33.09;32.09;99570.44;5046421;28;19917;-86
2022/05/31 11:12:27;;;;;;;;;;;;;;;32.97;33.21;99552.69;5047013;28;19927;-85
2022/05/31 11:15:04;;;;;;;;;;;;;;;32.73;34.08;99540.72;5046721;28;20024;-86
2022/05/31 11:17:48;;;;;;;;;;;;;;;32.57;34.88;99538.81;5047865;28;20390;-86
2022/05/31 11:20:17;;;;;;;;;;;;;;;32.63;34.71;99534.56;5046075;28;19927;-86
2022/05/31 11:23:02;;;;;;;;;;;;;;;33.09;34.91;99534.91;5046917;28;20023;-86
2022/05/31 11:25:51;;;;;;;;;;;;;;;33.39;33.59;99532.50;5046966;28;19924;-85
2022/05/31 11:28:31;;;;;;;;;;;;;;;33.13;34.08;99527.22;5027917;28;20313;-85
2022/05/31 11:31:05;;;;;;;;;;;;;;;32.95;34.62;99514.63;5046685;28;20074;-87
2022/05/31 11:33:43;;;;;;;;;;;;;;;33.25;34.24;99505.88;5046285;28;19924;-86
2022/05/31 11:36:11;;;;;;;;;;;;;;;32.97;33.48;99498.91;5046459;28;19924;-86
2022/05/31 11:38:53;;;;;;;;;;;;;;;32.98;33.60;99502.47;5028753;28;20319;-87
2022/05/31 11:41:21;;;;;;;;;;;;;;;33.10;32.99;99495.63;5046725;28;19923;-87
2022/05/31 11:43:50;;;;;;;;;;;;;;;32.76;32.24;99495.84;5028834;28;20020;-88
2022/05/31 11:46:18;;;;;;;;;;;;;;;32.85;33.89;99500.28;5046653;28;19923;-88
2022/05/31 11:49:00;;;;;;;;;;;;;;;33.22;32.22;99501.63;5047035;28;19983;-86
2022/05/31 11:51:44;;;;;;;;;;;;;;;33.16;32.52;99508.59;5049651;28;19913;-87
2022/05/31 11:54:35;;;;;;;;;;;;;;;33.14;32.64;99505.19;5050412;28;19983;-87
2022/05/31 11:57:09;;;;;;;;;;;;;;;33.16;33.50;99510.47;5050215;28;19923;-85
2022/05/31 11:59:35;;;;;;;;;;;;;;;32.91;33.75;99512.41;5049946;28;19917;-84
2022/05/31 12:02:04;;;;;;;;;;;;;;;33.06;35.88;99513.41;5050549;28;19912;-86
2022/05/31 12:04:43;;;;;;;;;;;;;;;32.74;32.93;99515.13;5031928;28;19917;-86
2022/05/31 12:07:18;;;;;;;;;;;;;;;32.98;33.34;99522.47;5050026;28;19916;-86
2022/05/31 12:09:43;;;;;;;;;;;;;;;33.56;32.95;99522.34;5049723;28;20382;-87
2022/05/31 12:12:13;;;;;;;;;;;;;;;33.32;35.04;99532.34;5049705;28;19923;-87
2022/05/31 12:14:41;;;;;;;;;;;;;;;33.04;33.57;99529.09;5049595;28;19912;-87
2022/05/31 12:17:08;;;;;;;;;;;;;;;33.34;34.35;99532.16;5049480;28;19974;-87
2022/05/31 12:19:42;;;;;;;;;;;;;;;33.63;33.04;99530.69;5050323;28;19912;-86
2022/05/31 12:22:15;;;;;;;;;;;;;;;34.04;30.54;99527.81;5049374;28;19920;-87
2022/05/31 12:24:53;;;;;;;;;;;;;;;34.18;31.41;99528.94;5050768;28;19916;-87
2022/05/31 12:27:39;;;;;;;;;;;;;;;34.05;30.84;99532.28;5048386;28;19951;-87
2022/05/31 12:30:16;;;;;;;;;;;;;;;33.97;32.79;99541.38;5017249;28;19978;-85
2022/05/31 12:32:43;;;;;;;;;;;;;;;33.82;31.44;99535.78;5049193;28;19920;-85
2022/05/31 12:35:27;;;;;;;;;;;;;;;33.78;31.53;99539.06;5048906;28;20386;-87
2022/05/31 12:38:07;;;;;;;;;;;;;;;33.51;30.44;99530.25;5048863;28;20007;-87
2022/05/31 12:40:32;;;;;;;;;;;;;;;33.36;31.71;99525.47;5049622;28;19913;-87
2022/05/31 12:42:57;;;;;;;;;;;;;;;33.70;32.35;99532.53;5049373;28;19920;-86
2022/05/31 12:45:28;;;;;;;;;;;;;;;33.38;32.18;99522.56;5049501;28;20366;-85
2022/05/31 12:47:54;;;;;;;;;;;;;;;33.49;30.99;99518.59;5048310;28;19974;-86
2022/05/31 12:50:43;;;;;;;;;;;;;;;33.45;31.22;99515.38;5049579;28;19916;-86
2022/05/31 12:55:36;;;;;;;;;;;;;;;34.10;31.35;99504.38;5047977;28;19924;-87
2022/05/31 13:00:47;;;;;;;;;;;;;;;33.72;33.07;99508.66;5048257;28;19938;-86
2022/05/31 13:03:31;;;;;;;;;;;;;;;33.12;33.43;99511.84;5030353;28;19919;-87
2022/05/31 13:05:58;;;;;;;;;;;;;;;33.12;32.68;99520.03;5049012;28;19928;-87
2022/05/31 13:08:43;;;;;;;;;;;;;;;32.90;33.67;99525.19;5042496;28;19917;-86
2022/05/31 13:19:41;;;;;;;;;;;;;;;30.47;35.72;99593.38;5028209;28;20047;-86
2022/05/31 13:22:12;;;;;;;;;;;;;;;29.48;37.18;99604.81;5026893;28;19957;-87
2022/05/31 13:24:47;;;;;;;;;;;;;;;27.98;38.92;99615.78;5022026;28;20357;-86
2022/05/31 13:27:22;;;;;;;;;;;;;;;27.43;40.23;99604.38;5027218;28;19917;-88
2022/05/31 13:30:01;;;;;;;;;;;;;;;27.25;40.41;99617.59;5027047;28;19921;-88